This is the latest recevied weather packets stored in our database for station/object Aldingen. If no packets are shown the sender has not sent any weather packets the latest 10 day(s).
| Time | Temp. | Humidity | Pressure | Rain* | Wind** | Luminosity | Snow |
|---|---|---|---|---|---|---|---|
| 1777235530 | 8.89° C | 60% | 1021.7 hPa | 0 mm | - | - | - |
| 1777233730 | 10.56° C | 53% | 1021.5 hPa | 0 mm | - | - | - |
| 1777231930 | 11.67° C | 48% | 1021.3 hPa | 0 mm | - | - | - |
| 1777230130 | 13.33° C | 42% | 1020.8 hPa | 0 mm | - | - | - |
| 1777228331 | 14.44° C | 40% | 1020.4 hPa | 0 mm | - | - | - |
| 1777226529 | 15.56° C | 37% | 1020.1 hPa | 0 mm | - | - | - |
| 1777224730 | 16.67° C | 36% | 1019.9 hPa | 0 mm | - | - | - |
| 1777222930 | 17.78° C | 35% | 1019.9 hPa | 0 mm | - | - | - |
| 1777221130 | 18.33° C | 33% | 1019.9 hPa | 0 mm | - | - | - |
| 1777219331 | 18.33° C | 33% | 1019.9 hPa | 0 mm | - | - | - |
| 1777217530 | 18.89° C | 30% | 1020 hPa | 0 mm | - | - | - |
| 1777215731 | 18.89° C | 31% | 1019.9 hPa | 0 mm | - | - | - |
| 1777213930 | 18.89° C | 31% | 1020 hPa | 0 mm | - | - | - |
| 1777212130 | 18.33° C | 31% | 1020.1 hPa | 0 mm | - | - | - |
| 1777210330 | 18.33° C | 33% | 1020.4 hPa | 0 mm | - | - | - |
| 1777208531 | 17.22° C | 31% | 1020.7 hPa | 0 mm | - | - | - |
| 1777206730 | 17.78° C | 38% | 1021.1 hPa | 0 mm | - | - | - |
| 1777204931 | 17.22° C | 36% | 1021.2 hPa | 0 mm | - | - | - |
| 1777203131 | 16.11° C | 38% | 1021.4 hPa | 0 mm | - | - | - |
| 1777201330 | 15.56° C | 41% | 1021.6 hPa | 0 mm | - | - | - |
| 1777199532 | 15.56° C | 39% | 1021.6 hPa | 0 mm | - | - | - |
| 1777197730 | 15° C | 43% | 1021.7 hPa | 0 mm | - | - | - |
| 1777195933 | 15° C | 48% | 1021.8 hPa | 0 mm | - | - | - |
| 1777194132 | 13.33° C | 43% | 1021.9 hPa | 0 mm | - | - | - |
| 1777192331 | 12.22° C | 49% | 1021.9 hPa | 0 mm | - | - | - |
* Rain since midnight (hover to see other rain measurements)
** Current wind speed in m/s (hover to see current wind gust speed)